Tuesday, December 23, 2014
02:16 UTC
  |  Log In   |  Register Free
Airport Search:

Teterboro Airport
(KTEB)

Airport information sponsored by:
Landmark Aviation - TEB at Teterboro (KTEB), Teterboro, NJ
FAA data valid effective November 13, 2014 - January 08, 2015 (unless otherwise noted).

 
 
 
 
 
 
 
 
 
 
 
 
 
 

Current Aviation Weather for Teterboro Airport (KTEB)

The most recent METAR observation for KTEB was updated at: 2121
METAR Summary (Translated METAR)
KTEB
182051Z 30007G19KT 10SM OVC038 04/M04 A2996 RMK AO2 SLP145 T00441039 53005
KLGA
182051Z 30018G24KT 10SM BKN039 05/M04 A2996 RMK AO2 SLP143 T00501039 53003
(9.6 nm SE from KTEB)
KCDW
182053Z 31015G21KT 10SM OVC036 04/M04 A2998 RMK AO2 SLP157 T00391044 53006
(10.1 nm NW from KTEB)
TAF Summary (Translated TAF)
KTEB
222030Z 2221/2318 05005KT P6SM SCT009 OVC012 FM222300 07007KT 5SM -RA BR SCT005 OVC008 FM230200 07008KT 3SM -RA BR OVC005 FM231300 VRB03KT 5SM -RA BR OVC008
KLGA
(9.6 nm SE from KTEB)
222030Z 2221/2318 06010KT P6SM SCT008 OVC015 FM222300 08010KT 5SM -RA BR OVC008 FM230200 08010KT 3SM -RA BR OVC005 FM231300 07009KT 2SM -DZ BR BKN006 OVC009
  Airport Weather Conditions for KTEB

 Current Weather at TEB
44° F
Light Rain
East winds at 4.6 mph
TEB NOAA Radar

Pressure: 30.22 in
Humidity: 85%
Wind: East at 4.6 MPH (4 KT)
Dew Point: 39.9°F
Visibility: 8.00 mi


Airport Weather Forecast for KTEB

Translated METAR and TAF for KTEB
Translated METAR for KTEB (0217 UTC 23 December 2014)
found at http://aviationweather.gov/adds/metars/
 
METAR text: KTEB 230151Z 09008KT 10SM OVC011 07/05 A3019 RMK AO2 RAE38 SLP222 P0000 T00720050 $
Conditions at: KTEB (TETERBORO , NJ, US) observed 0151 UTC 23 December 2014
Temperature: 7.2°C (45°F)
Dewpoint: 5.0°C (41°F) [RH = 86%]
Pressure (altimeter): 30.19 inches Hg (1022.4 mb)
[Sea-level pressure: 1022.2 mb]
Winds: from the E (90 degrees) at 9 MPH (8 knots; 4.2 m/s)
Visibility: 10 or more miles (16+ km)
Ceiling: 1100 feet AGL
Clouds: overcast cloud deck at 1100 feet AGL
Weather:
SOME DATA ABOVE MAY BE INACCURATE!!!
"$" is an indication the sensor requires maintenance
Translated TAF for KTEB
Forecast for: KTEB (TETERBORO , NJ, US)
TAF Text: KTEB 230150Z 2302/2324 07005KT 6SM -RA OVC013
Forecast period: 0200 to 0400 UTC 23 December 2014
Forecast type: FROM: standard forecast or significant change
Winds: from the ENE (70 degrees) at 6 MPH (5 knots; 2.6 m/s)
Visibility: 6 miles (10 km)
Ceiling: 1300 feet AGL
Clouds: overcast cloud deck at 1300 feet AGL
Weather: -RA  (light rain)
TAF Text: FM230400 06005KT 4SM -RA BR OVC007
Forecast period: 0400 to 0700 UTC 23 December 2014
Forecast type: FROM: standard forecast or significant change
Winds: from the ENE (60 degrees) at 6 MPH (5 knots; 2.6 m/s)
Visibility: 4 miles (6 km)
Ceiling: 700 feet AGL
Clouds: overcast cloud deck at 700 feet AGL
Weather: -RA BR  (light rain, mist)
TAF Text: FM230700 06005KT 3SM -RA BR OVC005
Forecast period: 0700 to 1300 UTC 23 December 2014
Forecast type: FROM: standard forecast or significant change
Winds: from the ENE (60 degrees) at 6 MPH (5 knots; 2.6 m/s)
Visibility: 3 miles (5 km)
Ceiling: 500 feet AGL
Clouds: overcast cloud deck at 500 feet AGL
Weather: -RA BR  (light rain, mist)
TAF Text: FM231300 05007KT 3SM -RA BR OVC008
Forecast period: 1300 to 1800 UTC 23 December 2014
Forecast type: FROM: standard forecast or significant change
Winds: from the NE (50 degrees) at 8 MPH (7 knots; 3.6 m/s)
Visibility: 3 miles (5 km)
Ceiling: 800 feet AGL
Clouds: overcast cloud deck at 800 feet AGL
Weather: -RA BR  (light rain, mist)
TAF Text: FM231800 02005KT 2SM -RADZ BR OVC005
Forecast period: 1800 UTC 23 December 2014 to 0000 UTC 24 December 2014
Forecast type: FROM: standard forecast or significant change
Winds: from the NNE (20 degrees) at 6 MPH (5 knots; 2.6 m/s)
Visibility: 2.00 miles (3.22 km)
Ceiling: 500 feet AGL
Clouds: overcast cloud deck at 500 feet AGL
Weather: -RA -DZ BR  (light rain, light drizzle, mist)

Find All Airport Services Find A Hotel Find A Rental Car Find A Golf Course Find A Restaurant $100 Hamburger



FBO's on the Field
FBO Company Facility Photos Services Transportation Aviation Fuel Prices: Prices include tax
Catering Weather Repair Courtesy Rental Type 100LL JetA JetA+ MOGAS 8087
 
Landmark Aviation - TEB

Landmark Aviation - TEB logo
Currently rated 4.2 by 5 people
FS:
Last Updated: Dec-22
Login to update fuel prices
SS:
Contact Landmark Aviation - TEBMore FBO Information
 
Atlantic Aviation

Currently rated 4 by 1 person
FS:Independent
Last Updated: Dec-22
Login to update fuel prices
SS:
Contact Atlantic AviationMore FBO Information
 
Jet Aviation

Currently rated 4.7 by 3 people
FS:Phillips 66
Last Updated: Dec-10
Login to update fuel prices
SS:
Contact Jet AviationMore FBO Information
 
Meridian Teterboro

Currently rated 4.4 by 4 people
FS:Shell
Last Updated: Dec-17
Login to update fuel prices
SS:
Contact Meridian TeterboroMore FBO Information
 
Signature Flight Support

Currently rated 3.4 by 1 person
FS:Independent
Last Updated: Dec-22
Login to update fuel prices
SS:
Contact Signature Flight SupportMore FBO Information
 
Add another FBO Facility Photos Catering Weather Repair Courtesy Rental Type 100LL JetA JetA+ MOGAS 8087
Services Transportation Aviation Fuel Prices: Prices include tax


model-print
model-print
model-print
model-print